sensor_id;sensor_type;location;lat;lon;timestamp;P1;durP1;ratioP1;P2;durP2;ratioP2
11037;SDS011;5572;49.540;11.932;2023-07-22T00:02:18;13.40;;;12.27;;
11037;SDS011;5572;49.540;11.932;2023-07-22T00:04:45;14.50;;;13.23;;
11037;SDS011;5572;49.540;11.932;2023-07-22T00:07:12;15.53;;;14.23;;
11037;SDS011;5572;49.540;11.932;2023-07-22T00:09:38;16.07;;;14.73;;
11037;SDS011;5572;49.540;11.932;2023-07-22T00:12:08;16.13;;;14.80;;
11037;SDS011;5572;49.540;11.932;2023-07-22T00:14:35;14.50;;;13.27;;
11037;SDS011;5572;49.540;11.932;2023-07-22T00:17:04;14.43;;;13.20;;
11037;SDS011;5572;49.540;11.932;2023-07-22T00:19:31;15.17;;;13.87;;
11037;SDS011;5572;49.540;11.932;2023-07-22T00:21:59;15.43;;;14.13;;
11037;SDS011;5572;49.540;11.932;2023-07-22T00:24:25;14.23;;;13.03;;
11037;SDS011;5572;49.540;11.932;2023-07-22T00:26:52;15.27;;;14.03;;
11037;SDS011;5572;49.540;11.932;2023-07-22T00:29:20;13.43;;;12.37;;
11037;SDS011;5572;49.540;11.932;2023-07-22T00:31:46;16.17;;;14.83;;
11037;SDS011;5572;49.540;11.932;2023-07-22T00:34:14;17.23;;;15.73;;
11037;SDS011;5572;49.540;11.932;2023-07-22T00:36:41;16.90;;;15.47;;
11037;SDS011;5572;49.540;11.932;2023-07-22T00:39:09;14.40;;;13.13;;
11037;SDS011;5572;49.540;11.932;2023-07-22T00:41:36;15.87;;;14.50;;
11037;SDS011;5572;49.540;11.932;2023-07-22T00:44:03;13.53;;;12.50;;
11037;SDS011;5572;49.540;11.932;2023-07-22T00:46:31;14.67;;;13.40;;
11037;SDS011;5572;49.540;11.932;2023-07-22T00:48:57;15.77;;;14.40;;
11037;SDS011;5572;49.540;11.932;2023-07-22T00:51:24;14.20;;;12.97;;
11037;SDS011;5572;49.540;11.932;2023-07-22T00:53:51;15.67;;;14.33;;
11037;SDS011;5572;49.540;11.932;2023-07-22T00:56:17;15.03;;;13.73;;
11037;SDS011;5572;49.540;11.932;2023-07-22T00:58:44;14.03;;;12.83;;
11037;SDS011;5572;49.540;11.932;2023-07-22T01:01:11;14.57;;;13.33;;
11037;SDS011;5572;49.540;11.932;2023-07-22T01:03:39;14.73;;;13.47;;
11037;SDS011;5572;49.540;11.932;2023-07-22T01:06:11;15.00;;;13.77;;
11037;SDS011;5572;49.540;11.932;2023-07-22T01:08:41;15.30;;;14.03;;
11037;SDS011;5572;49.540;11.932;2023-07-22T01:11:07;15.47;;;14.23;;
11037;SDS011;5572;49.540;11.932;2023-07-22T01:13:34;14.40;;;13.17;;
11037;SDS011;5572;49.540;11.932;2023-07-22T01:16:00;15.43;;;14.10;;
11037;SDS011;5572;49.540;11.932;2023-07-22T01:18:27;14.93;;;13.70;;
11037;SDS011;5572;49.540;11.932;2023-07-22T01:20:55;15.07;;;13.80;;
11037;SDS011;5572;49.540;11.932;2023-07-22T01:23:24;15.97;;;14.67;;
11037;SDS011;5572;49.540;11.932;2023-07-22T01:25:50;16.73;;;15.23;;
11037;SDS011;5572;49.540;11.932;2023-07-22T01:28:20;14.10;;;12.97;;
11037;SDS011;5572;49.540;11.932;2023-07-22T01:30:47;15.00;;;13.77;;
11037;SDS011;5572;49.540;11.932;2023-07-22T01:33:13;15.50;;;14.27;;
11037;SDS011;5572;49.540;11.932;2023-07-22T01:35:40;16.53;;;15.20;;
11037;SDS011;5572;49.540;11.932;2023-07-22T01:38:07;14.27;;;13.13;;
11037;SDS011;5572;49.540;11.932;2023-07-22T01:40:35;16.20;;;14.87;;
11037;SDS011;5572;49.540;11.932;2023-07-22T01:43:01;15.07;;;13.80;;
11037;SDS011;5572;49.540;11.932;2023-07-22T01:45:28;14.80;;;13.63;;
11037;SDS011;5572;49.540;11.932;2023-07-22T01:47:54;15.93;;;14.60;;
11037;SDS011;5572;49.540;11.932;2023-07-22T01:50:21;14.23;;;13.00;;
11037;SDS011;5572;49.540;11.932;2023-07-22T01:52:48;15.57;;;14.30;;
11037;SDS011;5572;49.540;11.932;2023-07-22T01:55:15;15.63;;;14.33;;
11037;SDS011;5572;49.540;11.932;2023-07-22T01:57:43;14.50;;;13.27;;
11037;SDS011;5572;49.540;11.932;2023-07-22T02:00:10;16.67;;;15.30;;
11037;SDS011;5572;49.540;11.932;2023-07-22T02:02:37;17.53;;;16.10;;
11037;SDS011;5572;49.540;11.932;2023-07-22T02:05:04;14.73;;;13.40;;
11037;SDS011;5572;49.540;11.932;2023-07-22T02:07:32;14.77;;;13.50;;
11037;SDS011;5572;49.540;11.932;2023-07-22T02:09:58;14.67;;;13.37;;
11037;SDS011;5572;49.540;11.932;2023-07-22T02:12:25;13.47;;;12.30;;
11037;SDS011;5572;49.540;11.932;2023-07-22T02:14:53;12.53;;;11.43;;
11037;SDS011;5572;49.540;11.932;2023-07-22T02:17:20;14.57;;;13.33;;
11037;SDS011;5572;49.540;11.932;2023-07-22T02:19:47;15.00;;;13.73;;
11037;SDS011;5572;49.540;11.932;2023-07-22T02:22:13;13.27;;;12.07;;
11037;SDS011;5572;49.540;11.932;2023-07-22T02:24:40;13.40;;;12.23;;
11037;SDS011;5572;49.540;11.932;2023-07-22T02:27:06;12.97;;;11.83;;
11037;SDS011;5572;49.540;11.932;2023-07-22T02:29:33;15.20;;;13.93;;
11037;SDS011;5572;49.540;11.932;2023-07-22T02:32:01;16.23;;;14.87;;
11037;SDS011;5572;49.540;11.932;2023-07-22T02:34:28;15.17;;;13.90;;
11037;SDS011;5572;49.540;11.932;2023-07-22T02:36:55;15.67;;;14.33;;
11037;SDS011;5572;49.540;11.932;2023-07-22T02:39:22;15.37;;;14.10;;
11037;SDS011;5572;49.540;11.932;2023-07-22T02:41:48;14.47;;;13.23;;
11037;SDS011;5572;49.540;11.932;2023-07-22T02:44:15;15.30;;;13.87;;
11037;SDS011;5572;49.540;11.932;2023-07-22T02:46:42;13.83;;;12.63;;
11037;SDS011;5572;49.540;11.932;2023-07-22T02:49:10;14.77;;;13.57;;
11037;SDS011;5572;49.540;11.932;2023-07-22T02:51:37;14.40;;;13.20;;
11037;SDS011;5572;49.540;11.932;2023-07-22T02:54:03;14.30;;;13.10;;
11037;SDS011;5572;49.540;11.932;2023-07-22T02:56:30;14.97;;;13.73;;
11037;SDS011;5572;49.540;11.932;2023-07-22T02:58:56;16.27;;;14.87;;
11037;SDS011;5572;49.540;11.932;2023-07-22T03:01:23;13.77;;;12.57;;
11037;SDS011;5572;49.540;11.932;2023-07-22T03:03:50;16.13;;;14.80;;
11037;SDS011;5572;49.540;11.932;2023-07-22T03:06:18;15.37;;;14.10;;
11037;SDS011;5572;49.540;11.932;2023-07-22T03:08:45;15.20;;;13.93;;
11037;SDS011;5572;49.540;11.932;2023-07-22T03:11:13;14.90;;;13.70;;
11037;SDS011;5572;49.540;11.932;2023-07-22T03:13:40;15.07;;;13.83;;
11037;SDS011;5572;49.540;11.932;2023-07-22T03:16:06;13.23;;;12.13;;
11037;SDS011;5572;49.540;11.932;2023-07-22T03:18:34;15.33;;;14.07;;
11037;SDS011;5572;49.540;11.932;2023-07-22T03:21:01;14.50;;;13.27;;
11037;SDS011;5572;49.540;11.932;2023-07-22T03:23:29;14.90;;;13.67;;
11037;SDS011;5572;49.540;11.932;2023-07-22T03:25:55;14.83;;;13.53;;
11037;SDS011;5572;49.540;11.932;2023-07-22T03:28:22;14.07;;;12.83;;
11037;SDS011;5572;49.540;11.932;2023-07-22T03:30:50;15.27;;;13.93;;
11037;SDS011;5572;49.540;11.932;2023-07-22T03:33:17;12.90;;;11.80;;
11037;SDS011;5572;49.540;11.932;2023-07-22T03:35:44;13.27;;;12.10;;
11037;SDS011;5572;49.540;11.932;2023-07-22T03:38:11;15.23;;;13.93;;
11037;SDS011;5572;49.540;11.932;2023-07-22T03:40:39;16.40;;;15.00;;
11037;SDS011;5572;49.540;11.932;2023-07-22T03:43:06;14.90;;;13.63;;
11037;SDS011;5572;49.540;11.932;2023-07-22T03:45:32;14.63;;;13.40;;
11037;SDS011;5572;49.540;11.932;2023-07-22T03:47:59;16.07;;;14.73;;
11037;SDS011;5572;49.540;11.932;2023-07-22T03:50:27;13.67;;;12.53;;
11037;SDS011;5572;49.540;11.932;2023-07-22T03:52:54;15.23;;;13.93;;
11037;SDS011;5572;49.540;11.932;2023-07-22T03:55:20;16.87;;;15.47;;
11037;SDS011;5572;49.540;11.932;2023-07-22T03:57:48;13.40;;;12.23;;
11037;SDS011;5572;49.540;11.932;2023-07-22T04:00:15;15.43;;;14.17;;
11037;SDS011;5572;49.540;11.932;2023-07-22T04:02:42;18.63;;;17.07;;
11037;SDS011;5572;49.540;11.932;2023-07-22T04:05:09;17.33;;;15.77;;
11037;SDS011;5572;49.540;11.932;2023-07-22T04:07:36;13.97;;;12.77;;
11037;SDS011;5572;49.540;11.932;2023-07-22T04:10:03;15.20;;;13.87;;
11037;SDS011;5572;49.540;11.932;2023-07-22T04:12:30;14.83;;;13.60;;
11037;SDS011;5572;49.540;11.932;2023-07-22T04:14:58;15.00;;;13.70;;
11037;SDS011;5572;49.540;11.932;2023-07-22T04:17:24;14.67;;;13.43;;
11037;SDS011;5572;49.540;11.932;2023-07-22T04:19:51;14.87;;;13.60;;
11037;SDS011;5572;49.540;11.932;2023-07-22T04:22:18;15.50;;;14.23;;
11037;SDS011;5572;49.540;11.932;2023-07-22T04:24:45;15.00;;;13.73;;
11037;SDS011;5572;49.540;11.932;2023-07-22T04:27:13;15.63;;;14.33;;
11037;SDS011;5572;49.540;11.932;2023-07-22T04:29:40;14.00;;;12.83;;
11037;SDS011;5572;49.540;11.932;2023-07-22T04:32:08;15.03;;;13.73;;
11037;SDS011;5572;49.540;11.932;2023-07-22T04:34:35;14.20;;;13.00;;
11037;SDS011;5572;49.540;11.932;2023-07-22T04:37:01;15.53;;;14.27;;
11037;SDS011;5572;49.540;11.932;2023-07-22T04:39:28;13.83;;;12.70;;
11037;SDS011;5572;49.540;11.932;2023-07-22T04:41:55;13.20;;;12.07;;
11037;SDS011;5572;49.540;11.932;2023-07-22T04:44:21;14.70;;;13.47;;
11037;SDS011;5572;49.540;11.932;2023-07-22T04:46:49;14.77;;;13.57;;
11037;SDS011;5572;49.540;11.932;2023-07-22T04:49:16;15.27;;;14.03;;
11037;SDS011;5572;49.540;11.932;2023-07-22T04:51:44;15.47;;;14.23;;
11037;SDS011;5572;49.540;11.932;2023-07-22T04:54:11;15.47;;;14.17;;
11037;SDS011;5572;49.540;11.932;2023-07-22T04:56:37;16.43;;;15.10;;
11037;SDS011;5572;49.540;11.932;2023-07-22T04:59:04;14.63;;;13.40;;
11037;SDS011;5572;49.540;11.932;2023-07-22T05:01:31;15.00;;;13.73;;
11037;SDS011;5572;49.540;11.932;2023-07-22T05:03:57;14.90;;;13.67;;
11037;SDS011;5572;49.540;11.932;2023-07-22T05:06:27;13.90;;;12.73;;
11037;SDS011;5572;49.540;11.932;2023-07-22T05:08:54;16.00;;;14.67;;
11037;SDS011;5572;49.540;11.932;2023-07-22T05:11:21;15.43;;;14.13;;
11037;SDS011;5572;49.540;11.932;2023-07-22T05:13:48;14.30;;;13.17;;
11037;SDS011;5572;49.540;11.932;2023-07-22T05:16:15;15.73;;;14.50;;
11037;SDS011;5572;49.540;11.932;2023-07-22T05:18:41;12.83;;;11.77;;
11037;SDS011;5572;49.540;11.932;2023-07-22T05:21:08;16.03;;;14.73;;
11037;SDS011;5572;49.540;11.932;2023-07-22T05:23:36;14.60;;;13.43;;
11037;SDS011;5572;49.540;11.932;2023-07-22T05:26:02;17.70;;;16.23;;
11037;SDS011;5572;49.540;11.932;2023-07-22T05:28:29;15.23;;;14.10;;
11037;SDS011;5572;49.540;11.932;2023-07-22T05:30:55;15.53;;;14.37;;
11037;SDS011;5572;49.540;11.932;2023-07-22T05:33:22;18.20;;;16.83;;
11037;SDS011;5572;49.540;11.932;2023-07-22T05:35:49;17.67;;;16.30;;
11037;SDS011;5572;49.540;11.932;2023-07-22T05:38:15;17.87;;;16.53;;
11037;SDS011;5572;49.540;11.932;2023-07-22T05:40:43;14.20;;;13.17;;
11037;SDS011;5572;49.540;11.932;2023-07-22T05:43:10;16.90;;;15.67;;
11037;SDS011;5572;49.540;11.932;2023-07-22T05:45:37;16.27;;;15.07;;
11037;SDS011;5572;49.540;11.932;2023-07-22T05:48:04;16.43;;;15.23;;
11037;SDS011;5572;49.540;11.932;2023-07-22T05:50:31;15.60;;;14.47;;
11037;SDS011;5572;49.540;11.932;2023-07-22T05:52:57;16.73;;;15.43;;
11037;SDS011;5572;49.540;11.932;2023-07-22T05:55:24;15.60;;;14.47;;
11037;SDS011;5572;49.540;11.932;2023-07-22T05:57:53;15.87;;;14.77;;
11037;SDS011;5572;49.540;11.932;2023-07-22T06:00:19;17.30;;;16.03;;
11037;SDS011;5572;49.540;11.932;2023-07-22T06:02:46;18.57;;;17.13;;
11037;SDS011;5572;49.540;11.932;2023-07-22T06:05:13;16.17;;;14.97;;
11037;SDS011;5572;49.540;11.932;2023-07-22T06:07:40;16.93;;;15.73;;
11037;SDS011;5572;49.540;11.932;2023-07-22T06:10:07;17.33;;;15.93;;
11037;SDS011;5572;49.540;11.932;2023-07-22T06:12:34;21.23;;;19.50;;
11037;SDS011;5572;49.540;11.932;2023-07-22T06:15:02;17.60;;;16.27;;
11037;SDS011;5572;49.540;11.932;2023-07-22T06:17:29;16.53;;;15.23;;
11037;SDS011;5572;49.540;11.932;2023-07-22T06:19:55;16.83;;;15.50;;
11037;SDS011;5572;49.540;11.932;2023-07-22T06:22:22;17.87;;;16.40;;
11037;SDS011;5572;49.540;11.932;2023-07-22T06:24:48;16.23;;;15.00;;
11037;SDS011;5572;49.540;11.932;2023-07-22T06:27:15;19.70;;;17.93;;
11037;SDS011;5572;49.540;11.932;2023-07-22T06:29:41;15.70;;;14.57;;
11037;SDS011;5572;49.540;11.932;2023-07-22T06:32:09;17.60;;;16.20;;
11037;SDS011;5572;49.540;11.932;2023-07-22T06:34:36;16.90;;;15.60;;
11037;SDS011;5572;49.540;11.932;2023-07-22T06:37:03;16.03;;;14.83;;
11037;SDS011;5572;49.540;11.932;2023-07-22T06:39:30;16.50;;;15.23;;
11037;SDS011;5572;49.540;11.932;2023-07-22T06:41:57;15.77;;;14.57;;
11037;SDS011;5572;49.540;11.932;2023-07-22T06:44:24;16.77;;;15.47;;
11037;SDS011;5572;49.540;11.932;2023-07-22T06:46:50;16.60;;;15.30;;
11037;SDS011;5572;49.540;11.932;2023-07-22T06:49:18;16.70;;;15.40;;
11037;SDS011;5572;49.540;11.932;2023-07-22T06:51:45;16.13;;;14.83;;
11037;SDS011;5572;49.540;11.932;2023-07-22T06:54:11;16.50;;;15.20;;
11037;SDS011;5572;49.540;11.932;2023-07-22T06:56:38;17.10;;;15.77;;
11037;SDS011;5572;49.540;11.932;2023-07-22T06:59:04;15.20;;;13.97;;
11037;SDS011;5572;49.540;11.932;2023-07-22T07:01:31;17.50;;;15.80;;
11037;SDS011;5572;49.540;11.932;2023-07-22T07:03:57;16.40;;;15.07;;
11037;SDS011;5572;49.540;11.932;2023-07-22T07:06:25;18.13;;;16.30;;
11037;SDS011;5572;49.540;11.932;2023-07-22T07:08:51;15.93;;;14.73;;
11037;SDS011;5572;49.540;11.932;2023-07-22T07:11:18;17.13;;;15.80;;
11037;SDS011;5572;49.540;11.932;2023-07-22T07:13:45;16.10;;;14.80;;
11037;SDS011;5572;49.540;11.932;2023-07-22T07:16:21;17.53;;;16.13;;
11037;SDS011;5572;49.540;11.932;2023-07-22T07:18:49;14.67;;;13.53;;
11037;SDS011;5572;49.540;11.932;2023-07-22T07:21:15;17.53;;;16.00;;
11037;SDS011;5572;49.540;11.932;2023-07-22T07:23:43;16.10;;;14.83;;
11037;SDS011;5572;49.540;11.932;2023-07-22T07:26:10;16.47;;;15.17;;
11037;SDS011;5572;49.540;11.932;2023-07-22T07:28:37;15.93;;;14.70;;
11037;SDS011;5572;49.540;11.932;2023-07-22T07:31:03;15.87;;;14.67;;
11037;SDS011;5572;49.540;11.932;2023-07-22T07:33:30;15.80;;;14.60;;
11037;SDS011;5572;49.540;11.932;2023-07-22T07:35:57;15.57;;;14.37;;
11037;SDS011;5572;49.540;11.932;2023-07-22T07:38:23;17.90;;;16.40;;
11037;SDS011;5572;49.540;11.932;2023-07-22T07:40:52;16.33;;;15.10;;
11037;SDS011;5572;49.540;11.932;2023-07-22T07:43:19;16.33;;;15.10;;
11037;SDS011;5572;49.540;11.932;2023-07-22T07:45:46;15.80;;;14.57;;
11037;SDS011;5572;49.540;11.932;2023-07-22T07:48:12;14.90;;;13.77;;
11037;SDS011;5572;49.540;11.932;2023-07-22T07:50:39;16.50;;;15.23;;
11037;SDS011;5572;49.540;11.932;2023-07-22T07:53:06;15.43;;;14.23;;
11037;SDS011;5572;49.540;11.932;2023-07-22T07:55:32;17.63;;;16.30;;
11037;SDS011;5572;49.540;11.932;2023-07-22T07:58:00;16.00;;;14.80;;
11037;SDS011;5572;49.540;11.932;2023-07-22T08:00:27;15.60;;;14.30;;
11037;SDS011;5572;49.540;11.932;2023-07-22T08:02:54;15.37;;;14.17;;
11037;SDS011;5572;49.540;11.932;2023-07-22T08:05:20;16.30;;;15.07;;
11037;SDS011;5572;49.540;11.932;2023-07-22T08:07:47;16.40;;;15.10;;
11037;SDS011;5572;49.540;11.932;2023-07-22T08:10:13;16.60;;;15.27;;
11037;SDS011;5572;49.540;11.932;2023-07-22T08:12:40;26.33;;;16.63;;
11037;SDS011;5572;49.540;11.932;2023-07-22T08:15:08;14.90;;;13.73;;
11037;SDS011;5572;49.540;11.932;2023-07-22T08:17:35;15.10;;;13.97;;
11037;SDS011;5572;49.540;11.932;2023-07-22T08:20:02;15.93;;;14.70;;
11037;SDS011;5572;49.540;11.932;2023-07-22T08:22:31;16.33;;;15.07;;
11037;SDS011;5572;49.540;11.932;2023-07-22T08:24:57;15.67;;;14.47;;
11037;SDS011;5572;49.540;11.932;2023-07-22T08:27:24;16.07;;;14.87;;
11037;SDS011;5572;49.540;11.932;2023-07-22T08:29:50;17.30;;;15.90;;
11037;SDS011;5572;49.540;11.932;2023-07-22T08:32:18;17.73;;;16.33;;
11037;SDS011;5572;49.540;11.932;2023-07-22T08:34:46;16.57;;;15.33;;
11037;SDS011;5572;49.540;11.932;2023-07-22T08:37:12;15.60;;;14.43;;
11037;SDS011;5572;49.540;11.932;2023-07-22T08:39:39;17.67;;;16.33;;
11037;SDS011;5572;49.540;11.932;2023-07-22T08:42:05;16.07;;;14.93;;
11037;SDS011;5572;49.540;11.932;2023-07-22T08:44:34;16.33;;;15.20;;
11037;SDS011;5572;49.540;11.932;2023-07-22T08:47:04;15.70;;;14.63;;
11037;SDS011;5572;49.540;11.932;2023-07-22T08:49:36;17.40;;;16.10;;
11037;SDS011;5572;49.540;11.932;2023-07-22T08:52:03;16.40;;;15.23;;
11037;SDS011;5572;49.540;11.932;2023-07-22T08:54:30;17.83;;;16.60;;
11037;SDS011;5572;49.540;11.932;2023-07-22T08:56:57;16.67;;;15.47;;
11037;SDS011;5572;49.540;11.932;2023-07-22T08:59:24;16.93;;;15.70;;
11037;SDS011;5572;49.540;11.932;2023-07-22T09:01:51;15.90;;;14.80;;
11037;SDS011;5572;49.540;11.932;2023-07-22T09:04:18;17.60;;;16.30;;
11037;SDS011;5572;49.540;11.932;2023-07-22T09:06:46;16.60;;;15.47;;
11037;SDS011;5572;49.540;11.932;2023-07-22T09:09:14;21.30;;;19.70;;
11037;SDS011;5572;49.540;11.932;2023-07-22T09:11:41;19.23;;;17.80;;
11037;SDS011;5572;49.540;11.932;2023-07-22T09:14:08;16.30;;;15.17;;
11037;SDS011;5572;49.540;11.932;2023-07-22T09:16:35;18.00;;;16.63;;
11037;SDS011;5572;49.540;11.932;2023-07-22T09:19:03;17.20;;;16.00;;
11037;SDS011;5572;49.540;11.932;2023-07-22T09:21:30;17.57;;;16.33;;
11037;SDS011;5572;49.540;11.932;2023-07-22T09:24:02;16.63;;;15.47;;
11037;SDS011;5572;49.540;11.932;2023-07-22T09:26:45;17.70;;;16.43;;
11037;SDS011;5572;49.540;11.932;2023-07-22T09:29:11;18.57;;;17.27;;
11037;SDS011;5572;49.540;11.932;2023-07-22T09:31:48;17.30;;;16.07;;
11037;SDS011;5572;49.540;11.932;2023-07-22T09:34:15;16.43;;;15.27;;
11037;SDS011;5572;49.540;11.932;2023-07-22T09:36:51;17.17;;;15.97;;
11037;SDS011;5572;49.540;11.932;2023-07-22T09:39:19;16.20;;;15.17;;
11037;SDS011;5572;49.540;11.932;2023-07-22T09:41:46;21.67;;;20.07;;
11037;SDS011;5572;49.540;11.932;2023-07-22T09:44:12;16.90;;;15.77;;
11037;SDS011;5572;49.540;11.932;2023-07-22T09:46:39;19.03;;;17.70;;
11037;SDS011;5572;49.540;11.932;2023-07-22T09:49:08;17.60;;;16.43;;
11037;SDS011;5572;49.540;11.932;2023-07-22T09:51:36;17.63;;;16.47;;
11037;SDS011;5572;49.540;11.932;2023-07-22T09:54:04;17.73;;;16.47;;
11037;SDS011;5572;49.540;11.932;2023-07-22T09:56:42;20.13;;;18.60;;
11037;SDS011;5572;49.540;11.932;2023-07-22T09:59:10;20.30;;;18.70;;
11037;SDS011;5572;49.540;11.932;2023-07-22T10:01:37;23.10;;;20.80;;
11037;SDS011;5572;49.540;11.932;2023-07-22T10:04:05;19.23;;;17.87;;
11037;SDS011;5572;49.540;11.932;2023-07-22T10:06:33;20.07;;;18.53;;
11037;SDS011;5572;49.540;11.932;2023-07-22T10:09:00;19.00;;;17.73;;
11037;SDS011;5572;49.540;11.932;2023-07-22T10:11:33;20.63;;;19.17;;
11037;SDS011;5572;49.540;11.932;2023-07-22T10:14:00;19.27;;;17.97;;
11037;SDS011;5572;49.540;11.932;2023-07-22T10:16:27;20.80;;;19.37;;
11037;SDS011;5572;49.540;11.932;2023-07-22T10:18:54;19.87;;;18.50;;
11037;SDS011;5572;49.540;11.932;2023-07-22T10:21:22;20.23;;;18.93;;
11037;SDS011;5572;49.540;11.932;2023-07-22T10:23:50;20.80;;;19.37;;
11037;SDS011;5572;49.540;11.932;2023-07-22T10:26:18;20.20;;;18.70;;
11037;SDS011;5572;49.540;11.932;2023-07-22T10:28:47;22.13;;;20.53;;
11037;SDS011;5572;49.540;11.932;2023-07-22T10:31:14;20.53;;;19.07;;
11037;SDS011;5572;49.540;11.932;2023-07-22T10:33:44;19.90;;;18.47;;
11037;SDS011;5572;49.540;11.932;2023-07-22T10:36:12;20.93;;;19.40;;
11037;SDS011;5572;49.540;11.932;2023-07-22T10:38:41;19.77;;;18.40;;
11037;SDS011;5572;49.540;11.932;2023-07-22T10:41:11;18.53;;;17.23;;
11037;SDS011;5572;49.540;11.932;2023-07-22T10:43:39;19.73;;;18.33;;
11037;SDS011;5572;49.540;11.932;2023-07-22T10:46:07;20.07;;;18.70;;
11037;SDS011;5572;49.540;11.932;2023-07-22T10:48:36;19.83;;;18.43;;
11037;SDS011;5572;49.540;11.932;2023-07-22T10:51:05;20.97;;;19.50;;
11037;SDS011;5572;49.540;11.932;2023-07-22T10:53:37;19.97;;;18.57;;
11037;SDS011;5572;49.540;11.932;2023-07-22T10:56:13;22.50;;;20.90;;
11037;SDS011;5572;49.540;11.932;2023-07-22T10:58:57;20.17;;;18.73;;
11037;SDS011;5572;49.540;11.932;2023-07-22T11:01:31;20.70;;;19.27;;
11037;SDS011;5572;49.540;11.932;2023-07-22T11:04:06;21.30;;;19.77;;
11037;SDS011;5572;49.540;11.932;2023-07-22T11:06:36;21.47;;;19.90;;
11037;SDS011;5572;49.540;11.932;2023-07-22T11:09:03;20.40;;;18.97;;
11037;SDS011;5572;49.540;11.932;2023-07-22T11:11:34;20.87;;;19.50;;
11037;SDS011;5572;49.540;11.932;2023-07-22T11:14:15;21.60;;;20.07;;
11037;SDS011;5572;49.540;11.932;2023-07-22T11:16:44;20.93;;;19.10;;
11037;SDS011;5572;49.540;11.932;2023-07-22T11:19:12;20.07;;;18.57;;
11037;SDS011;5572;49.540;11.932;2023-07-22T11:21:39;20.73;;;19.20;;
11037;SDS011;5572;49.540;11.932;2023-07-22T11:24:06;18.87;;;17.57;;
11037;SDS011;5572;49.540;11.932;2023-07-22T11:26:33;20.13;;;18.67;;
11037;SDS011;5572;49.540;11.932;2023-07-22T11:29:00;23.67;;;21.63;;
11037;SDS011;5572;49.540;11.932;2023-07-22T11:31:30;20.93;;;19.33;;
11037;SDS011;5572;49.540;11.932;2023-07-22T11:33:58;18.70;;;17.40;;
11037;SDS011;5572;49.540;11.932;2023-07-22T11:36:25;20.53;;;18.97;;
11037;SDS011;5572;49.540;11.932;2023-07-22T11:38:52;20.57;;;19.03;;
11037;SDS011;5572;49.540;11.932;2023-07-22T11:41:19;20.57;;;19.07;;
11037;SDS011;5572;49.540;11.932;2023-07-22T11:43:46;22.20;;;20.70;;
11037;SDS011;5572;49.540;11.932;2023-07-22T11:46:13;21.13;;;19.50;;
11037;SDS011;5572;49.540;11.932;2023-07-22T11:48:40;22.20;;;20.57;;
11037;SDS011;5572;49.540;11.932;2023-07-22T11:51:17;20.70;;;19.23;;
11037;SDS011;5572;49.540;11.932;2023-07-22T11:53:46;19.57;;;18.27;;
11037;SDS011;5572;49.540;11.932;2023-07-22T11:56:17;22.00;;;20.43;;
11037;SDS011;5572;49.540;11.932;2023-07-22T11:58:47;20.07;;;18.63;;
11037;SDS011;5572;49.540;11.932;2023-07-22T12:01:15;19.70;;;18.23;;
11037;SDS011;5572;49.540;11.932;2023-07-22T12:03:42;21.60;;;19.97;;
11037;SDS011;5572;49.540;11.932;2023-07-22T12:06:08;22.13;;;20.33;;
11037;SDS011;5572;49.540;11.932;2023-07-22T12:08:37;20.77;;;19.23;;
11037;SDS011;5572;49.540;11.932;2023-07-22T12:11:15;20.93;;;19.33;;
11037;SDS011;5572;49.540;11.932;2023-07-22T12:13:42;21.70;;;20.13;;
11037;SDS011;5572;49.540;11.932;2023-07-22T12:16:11;22.00;;;20.37;;
11037;SDS011;5572;49.540;11.932;2023-07-22T12:18:42;21.30;;;19.77;;
11037;SDS011;5572;49.540;11.932;2023-07-22T12:21:08;21.43;;;19.90;;
11037;SDS011;5572;49.540;11.932;2023-07-22T12:23:37;23.30;;;21.57;;
11037;SDS011;5572;49.540;11.932;2023-07-22T12:26:03;23.13;;;21.03;;
11037;SDS011;5572;49.540;11.932;2023-07-22T12:28:30;25.53;;;23.60;;
11037;SDS011;5572;49.540;11.932;2023-07-22T12:30:57;24.77;;;22.83;;
11037;SDS011;5572;49.540;11.932;2023-07-22T12:33:23;23.83;;;22.07;;
11037;SDS011;5572;49.540;11.932;2023-07-22T12:35:50;23.43;;;21.70;;
11037;SDS011;5572;49.540;11.932;2023-07-22T12:38:17;22.53;;;20.83;;
11037;SDS011;5572;49.540;11.932;2023-07-22T12:40:45;22.17;;;20.47;;
11037;SDS011;5572;49.540;11.932;2023-07-22T12:43:11;22.07;;;20.43;;
11037;SDS011;5572;49.540;11.932;2023-07-22T12:45:38;24.27;;;22.43;;
11037;SDS011;5572;49.540;11.932;2023-07-22T12:48:05;23.30;;;21.47;;
11037;SDS011;5572;49.540;11.932;2023-07-22T12:50:32;25.10;;;23.27;;
11037;SDS011;5572;49.540;11.932;2023-07-22T12:52:59;24.73;;;22.97;;
11037;SDS011;5572;49.540;11.932;2023-07-22T12:55:26;25.73;;;23.27;;
11037;SDS011;5572;49.540;11.932;2023-07-22T12:57:54;19.90;;;18.63;;
11037;SDS011;5572;49.540;11.932;2023-07-22T13:00:20;23.30;;;21.67;;
11037;SDS011;5572;49.540;11.932;2023-07-22T13:02:47;26.23;;;24.20;;
11037;SDS011;5572;49.540;11.932;2023-07-22T13:05:14;23.83;;;22.13;;
11037;SDS011;5572;49.540;11.932;2023-07-22T13:07:40;21.20;;;19.73;;
11037;SDS011;5572;49.540;11.932;2023-07-22T13:10:07;24.10;;;22.50;;
11037;SDS011;5572;49.540;11.932;2023-07-22T13:12:36;24.13;;;22.33;;
11037;SDS011;5572;49.540;11.932;2023-07-22T13:15:04;23.63;;;21.93;;
11037;SDS011;5572;49.540;11.932;2023-07-22T13:17:31;20.87;;;19.43;;
11037;SDS011;5572;49.540;11.932;2023-07-22T13:19:58;22.83;;;21.10;;
11037;SDS011;5572;49.540;11.932;2023-07-22T13:22:24;22.63;;;20.90;;
11037;SDS011;5572;49.540;11.932;2023-07-22T13:24:51;23.30;;;21.60;;
11037;SDS011;5572;49.540;11.932;2023-07-22T13:27:18;24.63;;;22.83;;
11037;SDS011;5572;49.540;11.932;2023-07-22T13:29:44;22.70;;;21.07;;
11037;SDS011;5572;49.540;11.932;2023-07-22T13:32:13;22.60;;;21.00;;
11037;SDS011;5572;49.540;11.932;2023-07-22T13:34:39;23.23;;;21.63;;
11037;SDS011;5572;49.540;11.932;2023-07-22T13:37:06;25.83;;;24.03;;
11037;SDS011;5572;49.540;11.932;2023-07-22T13:39:32;22.37;;;20.83;;
11037;SDS011;5572;49.540;11.932;2023-07-22T13:41:59;21.37;;;20.00;;
11037;SDS011;5572;49.540;11.932;2023-07-22T13:44:25;24.43;;;22.57;;
11037;SDS011;5572;49.540;11.932;2023-07-22T13:46:52;24.67;;;22.97;;
11037;SDS011;5572;49.540;11.932;2023-07-22T13:49:20;21.70;;;20.30;;
11037;SDS011;5572;49.540;11.932;2023-07-22T13:51:46;23.23;;;21.70;;
11037;SDS011;5572;49.540;11.932;2023-07-22T13:54:13;21.37;;;19.80;;
11037;SDS011;5572;49.540;11.932;2023-07-22T13:56:41;21.57;;;20.07;;
11037;SDS011;5572;49.540;11.932;2023-07-22T13:59:08;22.60;;;20.97;;
11037;SDS011;5572;49.540;11.932;2023-07-22T14:01:35;21.10;;;19.60;;
11037;SDS011;5572;49.540;11.932;2023-07-22T14:04:01;22.47;;;20.83;;
11037;SDS011;5572;49.540;11.932;2023-07-22T14:06:30;21.67;;;20.03;;
11037;SDS011;5572;49.540;11.932;2023-07-22T14:08:57;22.73;;;21.07;;
11037;SDS011;5572;49.540;11.932;2023-07-22T14:11:24;19.87;;;18.63;;
11037;SDS011;5572;49.540;11.932;2023-07-22T14:13:50;23.87;;;22.17;;
11037;SDS011;5572;49.540;11.932;2023-07-22T14:16:17;24.47;;;22.70;;
11037;SDS011;5572;49.540;11.932;2023-07-22T14:18:44;25.30;;;23.37;;
11037;SDS011;5572;49.540;11.932;2023-07-22T14:21:11;22.70;;;21.03;;
11037;SDS011;5572;49.540;11.932;2023-07-22T14:23:39;22.67;;;21.07;;